Time;durP1;ratioP1;P1;durP2;ratioP2;P2;SDS_P1;SDS_P2;PMS_P1;PMS_P2;Temp;Humidity;BMP_temperature;BMP_pressure;BME280_temperature;BME280_humidity;BME280_pressure;Samples;Min_cycle;Max_cycle;Signal;HPM_P1;HPM_P2
2022/07/01 00:02:20;;;;;;;14.93;10.70;;;26.90;56.10;;;;;;5071396;28;20021;-55
2022/07/01 00:04:45;;;;;;;20.53;12.77;;;26.80;56.50;;;;;;5048764;28;20053;-54
2022/07/01 00:07:11;;;;;;;17.10;13.13;;;26.80;57.10;;;;;;5050971;28;20520;-56
2022/07/01 00:09:37;;;;;;;18.65;14.00;;;26.70;57.50;;;;;;5050768;28;20485;-55
2022/07/01 00:12:05;;;;;;;22.05;14.45;;;26.70;58.10;;;;;;5033184;28;20510;-53
2022/07/01 00:14:31;;;;;;;21.35;15.10;;;26.70;58.60;;;;;;5032353;28;20257;-53
2022/07/01 00:16:57;;;;;;;19.33;14.27;;;26.70;59.00;;;;;;5050742;28;20079;-56
2022/07/01 00:19:24;;;;;;;19.37;15.50;;;26.70;58.90;;;;;;5051054;28;20033;-53
2022/07/01 00:21:50;;;;;;;19.05;16.00;;;26.70;59.40;;;;;;5050775;28;20120;-55
2022/07/01 00:24:16;;;;;;;23.13;15.45;;;26.80;59.90;;;;;;5050632;28;20022;-56
2022/07/01 00:26:42;;;;;;;25.70;16.00;;;26.70;59.90;;;;;;5050836;28;20079;-54
2022/07/01 00:29:08;;;;;;;24.23;15.83;;;26.80;60.10;;;;;;5050469;28;20025;-55
2022/07/01 00:31:34;;;;;;;25.23;18.10;;;26.80;60.40;;;;;;5050488;28;20283;-55
2022/07/01 00:33:59;;;;;;;24.07;17.40;;;26.80;60.70;;;;;;5051133;28;20025;-54
2022/07/01 00:36:25;;;;;;;25.27;17.53;;;26.80;60.80;;;;;;5050361;28;20036;-55
2022/07/01 00:38:51;;;;;;;22.40;17.63;;;26.80;61.10;;;;;;5050118;28;20577;-52
2022/07/01 00:41:16;;;;;;;25.03;17.03;;;26.80;61.60;;;;;;5052482;28;20398;-55
2022/07/01 00:43:42;;;;;;;24.37;16.70;;;26.80;61.80;;;;;;5054203;28;20032;-54
2022/07/01 00:46:08;;;;;;;25.47;17.40;;;26.70;62.20;;;;;;5054617;28;20033;-53
2022/07/01 00:48:36;;;;;;;23.97;17.27;;;26.70;62.40;;;;;;5053927;28;20040;-54
2022/07/01 00:51:02;;;;;;;33.58;18.45;;;26.70;62.50;;;;;;5054479;28;20078;-55
2022/07/01 00:53:29;;;;;;;21.45;16.45;;;26.70;62.90;;;;;;5054167;28;20025;-53
2022/07/01 00:55:55;;;;;;;24.20;15.93;;;26.70;63.00;;;;;;5054434;28;20028;-53
2022/07/01 00:58:21;;;;;;;28.98;18.45;;;26.60;63.20;;;;;;5053878;28;20025;-54
2022/07/01 01:00:47;;;;;;;25.93;18.67;;;26.60;63.40;;;;;;5054106;28;20585;-53
2022/07/01 01:03:12;;;;;;;23.83;16.60;;;26.60;63.60;;;;;;5053796;28;20107;-53
2022/07/01 01:05:40;;;;;;;28.50;17.73;;;26.60;63.60;;;;;;5054323;28;20116;-55
2022/07/01 01:08:08;;;;;;;20.15;16.10;;;26.60;63.90;;;;;;5053730;28;20040;-54
2022/07/01 01:10:36;;;;;;;23.70;17.63;;;26.60;64.10;;;;;;5066577;28;20021;-55
2022/07/01 01:13:03;;;;;;;21.48;16.85;;;26.50;64.10;;;;;;5074195;28;20340;-53
2022/07/01 01:15:32;;;;;;;22.17;18.27;;;26.60;64.10;;;;;;5054503;28;20024;-54
2022/07/01 01:17:58;;;;;;;30.55;18.42;;;26.50;64.30;;;;;;5054159;28;20053;-56
2022/07/01 01:20:24;;;;;;;28.10;17.63;;;26.50;64.60;;;;;;5053958;28;20024;-55
2022/07/01 01:22:50;;;;;;;29.20;19.47;;;26.50;64.90;;;;;;5053860;28;20806;-53
2022/07/01 01:25:16;;;;;;;30.70;19.77;;;26.40;64.90;;;;;;5035899;28;20036;-53
2022/07/01 01:27:43;;;;;;;31.75;20.70;;;26.40;65.00;;;;;;5053587;28;20025;-53
2022/07/01 01:30:11;;;;;;;28.92;20.85;;;26.50;65.30;;;;;;5053200;28;20071;-56
2022/07/01 01:32:38;;;;;;;34.88;20.27;;;26.50;65.40;;;;;;5053133;28;20069;-53
2022/07/01 01:35:04;;;;;;;26.85;20.05;;;26.50;65.70;;;;;;5053446;28;20025;-55
2022/07/01 01:37:30;;;;;;;28.38;20.85;;;26.50;65.80;;;;;;5053509;28;20436;-53
2022/07/01 01:39:57;;;;;;;26.02;20.75;;;26.50;65.80;;;;;;5053472;28;20043;-54
2022/07/01 01:42:23;;;;;;;26.20;20.52;;;26.50;66.00;;;;;;5053252;28;20515;-56
2022/07/01 01:44:49;;;;;;;31.87;22.00;;;26.50;66.20;;;;;;5053156;28;20029;-54
2022/07/01 01:47:15;;;;;;;34.22;22.27;;;26.40;66.20;;;;;;5053348;28;20106;-53
2022/07/01 01:49:41;;;;;;;30.33;21.03;;;26.40;66.40;;;;;;5053262;28;20437;-55
2022/07/01 01:52:07;;;;;;;31.23;21.07;;;26.30;66.50;;;;;;5052870;28;20267;-55
2022/07/01 01:54:33;;;;;;;29.20;22.37;;;26.30;66.50;;;;;;5052973;28;20442;-55
2022/07/01 01:56:59;;;;;;;28.15;19.88;;;26.30;66.50;;;;;;5052746;28;20056;-55
2022/07/01 01:59:24;;;;;;;29.77;20.13;;;26.20;66.70;;;;;;5051388;28;20159;-53
2022/07/01 02:01:50;;;;;;;32.47;21.97;;;26.20;67.00;;;;;;5053034;28;20033;-53
2022/07/01 02:04:16;;;;;;;28.40;21.20;;;26.20;67.20;;;;;;5034871;28;20479;-56
2022/07/01 02:06:42;;;;;;;30.73;23.17;;;26.10;67.20;;;;;;5053055;28;20036;-54
2022/07/01 02:09:11;;;;;;;30.55;22.13;;;26.20;67.30;;;;;;5053011;28;20478;-54
2022/07/01 02:11:37;;;;;;;27.73;22.65;;;26.20;67.30;;;;;;5052662;28;20037;-53
2022/07/01 02:14:03;;;;;;;28.07;21.70;;;26.20;67.30;;;;;;5052723;28;20035;-56
2022/07/01 02:16:28;;;;;;;30.80;22.73;;;26.20;67.40;;;;;;5052869;28;20060;-55
2022/07/01 02:18:54;;;;;;;26.47;21.57;;;26.10;67.50;;;;;;5052915;28;20389;-55
2022/07/01 02:21:20;;;;;;;28.50;21.43;;;26.10;67.60;;;;;;5052629;28;20045;-55
2022/07/01 02:23:45;;;;;;;26.07;22.77;;;26.10;67.70;;;;;;5052710;28;20071;-53
2022/07/01 02:26:12;;;;;;;38.37;23.30;;;26.20;67.80;;;;;;5052872;28;20033;-55
2022/07/01 02:28:38;;;;;;;28.13;21.75;;;26.20;67.90;;;;;;5052487;28;20115;-54
2022/07/01 02:31:04;;;;;;;26.57;20.70;;;26.20;67.90;;;;;;5052457;28;20553;-56
2022/07/01 02:33:29;;;;;;;32.70;21.37;;;26.20;67.70;;;;;;5052483;28;20028;-56
2022/07/01 02:35:55;;;;;;;26.83;19.87;;;26.20;67.80;;;;;;5052290;28;20032;-55
2022/07/01 02:38:21;;;;;;;29.13;19.37;;;26.10;67.50;;;;;;5052374;28;20390;-53
2022/07/01 02:40:47;;;;;;;28.63;18.77;;;26.10;67.10;;;;;;5034280;28;20444;-53
2022/07/01 02:43:13;;;;;;;29.97;18.83;;;26.10;66.30;;;;;;5034405;28;20037;-54
2022/07/01 02:45:39;;;;;;;30.30;16.60;;;26.10;65.60;;;;;;5052365;28;20032;-56
2022/07/01 02:48:05;;;;;;;20.33;16.58;;;26.10;65.40;;;;;;5052209;28;20068;-55
2022/07/01 02:50:31;;;;;;;24.48;16.60;;;26.10;65.40;;;;;;5051853;28;20064;-55
2022/07/01 02:52:57;;;;;;;22.90;15.50;;;26.10;64.80;;;;;;5051909;28;20440;-54
2022/07/01 02:55:23;;;;;;;19.30;16.63;;;26.00;64.30;;;;;;5052103;28;20025;-55
2022/07/01 02:57:52;;;;;;;23.87;16.40;;;26.00;64.20;;;;;;5051074;28;20021;-54
2022/07/01 03:00:20;;;;;;;23.45;17.63;;;26.00;64.40;;;;;;5050758;28;20036;-55
2022/07/01 03:02:46;;;;;;;18.95;16.40;;;26.00;64.50;;;;;;5034024;28;20224;-56
2022/07/01 03:05:12;;;;;;;26.30;17.95;;;26.00;64.60;;;;;;5050897;28;20040;-54
2022/07/01 03:07:39;;;;;;;25.47;17.40;;;26.00;64.40;;;;;;5051528;28;20078;-56
2022/07/01 03:10:05;;;;;;;;;;;26.00;64.50;;;;;;5052276;28;20382;-53
2022/07/01 03:12:38;;;;;;;26.13;17.55;;;25.90;65.00;;;;;;5051841;28;19909;-53
2022/07/01 03:15:10;;;;;;;22.83;17.75;;;25.90;65.00;;;;;;5056482;28;20451;-55
2022/07/01 03:17:38;;;;;;;24.15;18.35;;;25.80;65.50;;;;;;5071836;28;20025;-56
2022/07/01 03:20:08;;;;;;;23.48;18.00;;;25.80;65.70;;;;;;5059287;28;20103;-55
2022/07/01 03:22:35;;;;;;;25.50;18.27;;;25.80;65.80;;;;;;5051788;28;20065;-56
2022/07/01 03:25:01;;;;;;;26.23;19.55;;;25.80;66.00;;;;;;5051649;28;20473;-55
2022/07/01 03:27:26;;;;;;;22.47;19.13;;;25.70;66.10;;;;;;5051373;28;20513;-56
2022/07/01 03:29:52;;;;;;;28.13;18.17;;;25.60;66.10;;;;;;5051745;28;20275;-55
2022/07/01 03:32:18;;;;;;;22.13;18.90;;;25.60;66.00;;;;;;5051690;28;20025;-56
2022/07/01 03:34:46;;;;;;;24.83;18.17;;;25.60;65.80;;;;;;5033902;28;20482;-56
2022/07/01 03:37:13;;;;;;;28.42;18.77;;;25.60;65.60;;;;;;5050152;28;20037;-54
2022/07/01 03:39:39;;;;;;;;;;;25.60;65.50;;;;;;5050502;28;20024;-56
2022/07/01 03:42:06;;;;;;;27.02;19.42;;;25.50;65.50;;;;;;5050996;28;19970;-56
2022/07/01 03:44:33;;;;;;;28.50;19.30;;;25.40;65.60;;;;;;5050157;28;20029;-55
2022/07/01 03:46:58;;;;;;;25.15;18.58;;;25.40;65.70;;;;;;5051421;28;20029;-56
2022/07/01 03:49:24;;;;;;;31.83;18.80;;;25.40;65.70;;;;;;5051261;28;20300;-56
2022/07/01 03:51:51;;;;;;;31.27;19.67;;;25.40;65.90;;;;;;5033504;28;20025;-55
2022/07/01 03:57:04;;;;;;;39.30;19.50;;;25.40;65.90;;;;;;5051716;28;20087;-55
2022/07/01 03:59:35;;;;;;;32.88;17.50;;;25.30;65.80;;;;;;5050204;28;20073;-54
2022/07/01 04:02:01;;;;;;;39.90;18.73;;;25.20;65.70;;;;;;5050736;28;20092;-56
2022/07/01 04:04:27;;;;;;;26.83;18.90;;;25.20;65.50;;;;;;5049353;28;20496;-55
2022/07/01 04:06:53;;;;;;;20.95;16.52;;;25.20;65.30;;;;;;5048793;28;20517;-55
2022/07/01 04:09:20;;;;;;;35.40;17.52;;;25.20;65.20;;;;;;5049095;28;20021;-55
2022/07/01 04:11:48;;;;;;;24.58;16.15;;;25.20;65.00;;;;;;5031693;28;20017;-56
2022/07/01 04:14:14;;;;;;;24.92;17.15;;;25.20;65.00;;;;;;5049465;28;20477;-54
2022/07/01 04:16:39;;;;;;;22.57;16.40;;;25.20;64.90;;;;;;5053857;28;20013;-54
2022/07/01 04:19:07;;;;;;;18.47;15.40;;;25.20;64.70;;;;;;5055021;28;20516;-55
2022/07/01 04:24:24;;;;;;;22.45;15.18;;;25.10;64.40;;;;;;5024298;28;20083;-53
2022/07/01 04:26:51;;;;;;;19.00;15.20;;;25.10;64.30;;;;;;5055552;28;20032;-56
2022/07/01 04:29:18;;;;;;;18.67;14.98;;;25.10;64.20;;;;;;5055020;28;20052;-53
2022/07/01 04:31:43;;;;;;;20.70;14.45;;;25.10;64.20;;;;;;5037252;28;20044;-55
2022/07/01 04:34:11;;;;;;;22.37;14.63;;;25.10;64.00;;;;;;5055126;28;20017;-52
2022/07/01 04:36:37;;;;;;;19.65;14.73;;;25.10;64.00;;;;;;5055209;28;20028;-56
2022/07/01 04:39:04;;;;;;;26.25;14.98;;;25.20;63.90;;;;;;5054671;28;20052;-54
2022/07/01 04:44:14;;;;;;;19.88;14.35;;;25.20;63.70;;;;;;5055246;28;20405;-55
2022/07/01 04:46:40;;;;;;;19.57;13.13;;;25.10;63.30;;;;;;5054984;28;20025;-54
2022/07/01 04:49:07;;;;;;;21.60;14.63;;;25.10;62.90;;;;;;5054581;28;20075;-54
2022/07/01 04:51:34;;;;;;;19.95;13.88;;;25.10;62.70;;;;;;5054764;28;20035;-56
2022/07/01 04:54:03;;;;;;;20.30;13.25;;;25.10;62.80;;;;;;5054664;28;20497;-53
2022/07/01 04:56:29;;;;;;;19.10;12.40;;;25.00;62.90;;;;;;5054688;28;20049;-54
2022/07/01 04:58:55;;;;;;;21.33;12.30;;;25.00;62.50;;;;;;5054484;28;20056;-53
2022/07/01 05:01:22;;;;;;;17.60;12.18;;;25.10;62.10;;;;;;5036771;28;20108;-52
2022/07/01 05:03:48;;;;;;;18.13;12.00;;;25.10;62.00;;;;;;5054628;28;20545;-54
2022/07/01 05:06:14;;;;;;;16.55;11.77;;;25.20;62.10;;;;;;5054471;28;20055;-55
2022/07/01 05:08:39;;;;;;;14.47;12.70;;;25.20;62.00;;;;;;5036438;28;20044;-53
2022/07/01 05:11:06;;;;;;;16.07;11.10;;;25.30;61.80;;;;;;5054422;28;20033;-56
2022/07/01 05:13:33;;;;;;;15.20;10.90;;;25.40;61.50;;;;;;5054415;28;20017;-52
2022/07/01 05:15:58;;;;;;;;;;;25.40;61.20;;;;;;5054802;28;20056;-56
2022/07/01 05:23:52;;;;;;;17.02;9.25;;;25.50;60.20;;;;;;5054262;28;20124;-56
2022/07/01 05:26:18;;;;;;;16.90;9.93;;;25.60;59.90;;;;;;5053696;28;20103;-55
2022/07/01 05:28:46;;;;;;;18.30;8.97;;;25.70;59.50;;;;;;5054018;28;20520;-54
2022/07/01 05:31:12;;;;;;;14.52;9.95;;;25.70;59.10;;;;;;5054061;28;20497;-52
2022/07/01 05:33:37;;;;;;;15.57;9.07;;;25.70;59.60;;;;;;5036221;28;20452;-55
2022/07/01 05:36:03;;;;;;;15.50;9.13;;;25.70;59.60;;;;;;5054094;28;20263;-53
2022/07/01 05:38:29;;;;;;;20.53;9.60;;;25.70;59.50;;;;;;5053843;28;20021;-55
2022/07/01 05:40:54;;;;;;;14.97;8.83;;;25.90;59.70;;;;;;5053929;28;20766;-55
2022/07/01 05:43:20;;;;;;;11.97;8.47;;;26.00;59.90;;;;;;5053925;28;20083;-54
2022/07/01 05:45:46;;;;;;;14.80;8.90;;;26.00;59.70;;;;;;5053500;28;20029;-52
2022/07/01 05:48:12;;;;;;;14.33;8.40;;;26.00;59.60;;;;;;5053494;28;20064;-52
2022/07/01 05:50:40;;;;;;;14.20;8.90;;;26.10;60.10;;;;;;5061902;22;20068;-55
2022/07/01 05:53:06;;;;;;;15.77;8.50;;;26.10;60.10;;;;;;5033705;28;20026;-54
2022/07/01 05:55:31;;;;;;;17.67;10.50;;;26.20;60.20;;;;;;5033642;28;20018;-54
2022/07/01 05:57:57;;;;;;;16.47;8.50;;;26.30;60.80;;;;;;5033488;28;20033;-54
2022/07/01 06:00:23;;;;;;;15.40;8.43;;;26.40;61.00;;;;;;5033536;28;20037;-56
2022/07/01 06:02:48;;;;;;;18.97;8.97;;;26.50;61.10;;;;;;5015853;28;20034;-57
2022/07/01 06:05:14;;;;;;;15.33;9.20;;;26.50;61.10;;;;;;5033495;28;20569;-55
2022/07/01 06:07:41;;;;;;;11.37;8.80;;;26.60;61.30;;;;;;5033311;28;20123;-58
2022/07/01 06:10:12;;;;;;;20.80;9.60;;;26.70;61.40;;;;;;5033273;28;20045;-54
2022/07/01 06:12:39;;;;;;;18.92;9.02;;;26.70;62.00;;;;;;5033341;28;20028;-56
2022/07/01 06:15:07;;;;;;;13.75;8.77;;;26.70;62.40;;;;;;5033320;28;20025;-57
2022/07/01 06:17:34;;;;;;;14.65;8.77;;;26.80;63.00;;;;;;5033134;28;20018;-58
2022/07/01 06:20:00;;;;;;;14.63;8.73;;;26.90;62.90;;;;;;5033166;28;20406;-56
2022/07/01 06:22:25;;;;;;;13.73;9.07;;;27.00;62.90;;;;;;5033203;28;20029;-57
2022/07/01 06:24:51;;;;;;;12.17;9.13;;;27.10;63.20;;;;;;5033141;28;20021;-55
2022/07/01 06:27:17;;;;;;;18.10;8.40;;;27.30;63.40;;;;;;5031635;28;20025;-56
2022/07/01 06:29:42;;;;;;;10.67;9.23;;;27.40;63.80;;;;;;5032917;28;20113;-57
2022/07/01 06:32:08;;;;;;;14.80;8.53;;;27.50;63.60;;;;;;5033048;28;20041;-56
2022/07/01 06:34:34;;;;;;;14.70;9.07;;;27.60;63.80;;;;;;5032996;28;20501;-56
2022/07/01 06:37:00;;;;;;;12.52;7.90;;;27.80;63.70;;;;;;5032820;28;20029;-56
2022/07/01 06:39:27;;;;;;;15.80;8.23;;;27.90;63.70;;;;;;5032649;28;20018;-57
2022/07/01 06:41:53;;;;;;;17.63;8.90;;;28.10;64.30;;;;;;5032861;28;20021;-56
2022/07/01 06:44:19;;;;;;;17.03;7.30;;;28.20;64.00;;;;;;5032640;28;20116;-56
2022/07/01 06:46:44;;;;;;;15.27;7.20;;;28.30;63.70;;;;;;5032812;28;20026;-54
2022/07/01 06:49:10;;;;;;;16.47;8.83;;;28.50;64.00;;;;;;5032379;28;20045;-56
2022/07/01 06:51:36;;;;;;;11.13;7.43;;;28.60;64.00;;;;;;5032515;28;20025;-57
2022/07/01 06:54:02;;;;;;;14.67;7.63;;;28.70;64.10;;;;;;5032508;28;20481;-57
2022/07/01 06:56:28;;;;;;;15.13;7.32;;;28.80;64.90;;;;;;5032508;28;20024;-57
2022/07/01 06:58:54;;;;;;;13.70;7.53;;;28.70;65.10;;;;;;5032511;28;20039;-57
2022/07/01 07:01:20;;;;;;;11.52;7.60;;;28.70;65.50;;;;;;5032530;28;20474;-58
2022/07/01 07:03:46;;;;;;;15.00;7.57;;;28.70;65.90;;;;;;5032434;28;20032;-56
2022/07/01 07:06:11;;;;;;;13.97;8.07;;;28.70;66.10;;;;;;5032365;28;20346;-58
2022/07/01 07:08:38;;;;;;;12.93;7.53;;;28.70;66.40;;;;;;5030863;28;20264;-56
2022/07/01 07:11:04;;;;;;;17.73;8.10;;;28.70;66.60;;;;;;5032100;28;20032;-58
2022/07/01 07:13:30;;;;;;;14.23;8.93;;;28.70;66.80;;;;;;5032273;28;20025;-57
2022/07/01 07:15:56;;;;;;;15.18;7.50;;;28.80;67.10;;;;;;5032367;28;20493;-56
2022/07/01 07:18:22;;;;;;;15.75;7.95;;;28.80;67.20;;;;;;5032165;28;20036;-54
2022/07/01 07:20:47;;;;;;;17.80;8.50;;;28.90;67.20;;;;;;5031967;28;20100;-56
2022/07/01 07:23:14;;;;;;;14.10;7.03;;;29.00;67.30;;;;;;5032060;28;20061;-58
2022/07/01 07:25:39;;;;;;;12.55;7.75;;;29.10;66.80;;;;;;5032014;28;20111;-55
2022/07/01 07:28:05;;;;;;;14.27;8.20;;;29.20;66.00;;;;;;5031880;28;20029;-58
2022/07/01 07:30:31;;;;;;;19.13;7.97;;;29.20;65.80;;;;;;5031879;28;20780;-58
2022/07/01 07:32:56;;;;;;;16.87;8.97;;;29.30;66.00;;;;;;5031993;28;20037;-57
2022/07/01 07:35:22;;;;;;;15.93;7.70;;;29.30;66.30;;;;;;5031852;28;20021;-55
2022/07/01 07:37:48;;;;;;;13.07;7.80;;;29.40;66.30;;;;;;5014051;28;20071;-57
2022/07/01 07:40:18;;;;;;;15.87;7.73;;;29.40;66.00;;;;;;5032331;28;20256;-57
2022/07/01 07:42:45;;;;;;;12.82;7.82;;;29.50;66.30;;;;;;5031898;28;20071;-56
2022/07/01 07:45:14;;;;;;;12.65;7.75;;;29.50;66.10;;;;;;5031867;28;20025;-54
2022/07/01 07:47:43;;;;;;;14.43;7.65;;;29.50;65.70;;;;;;5031666;28;20025;-56
2022/07/01 07:50:10;;;;;;;15.30;8.02;;;29.50;65.90;;;;;;5031047;28;20135;-57
2022/07/01 07:52:36;;;;;;;14.75;5.97;;;29.40;65.40;;;;;;5014044;28;20032;-51
2022/07/01 07:55:02;;;;;;;13.45;6.70;;;29.40;66.40;;;;;;5031688;28;20025;-52
2022/07/01 07:57:28;;;;;;;15.38;6.80;;;29.40;66.20;;;;;;5031636;28;20043;-51
2022/07/01 07:59:53;;;;;;;17.00;6.60;;;29.30;66.50;;;;;;5031668;28;20441;-51
2022/07/01 08:02:19;;;;;;;10.77;5.77;;;29.20;67.30;;;;;;5031699;28;20040;-50
2022/07/01 08:04:45;;;;;;;16.60;6.30;;;29.10;67.40;;;;;;5031551;28;20108;-57
2022/07/01 08:07:10;;;;;;;18.47;8.43;;;29.10;67.60;;;;;;5031460;28;20033;-59
2022/07/01 08:09:36;;;;;;;15.67;6.07;;;29.20;67.50;;;;;;5031406;28;20029;-59
2022/07/01 08:12:03;;;;;;;14.17;6.67;;;29.20;67.00;;;;;;5031750;28;20026;-58
2022/07/01 08:14:29;;;;;;;12.30;6.35;;;29.30;66.10;;;;;;5031460;28;20033;-57
2022/07/01 08:16:55;;;;;;;15.57;6.63;;;29.30;66.60;;;;;;5031480;28;20108;-58
2022/07/01 08:19:20;;;;;;;18.85;7.53;;;29.30;66.60;;;;;;5031201;28;20026;-59
2022/07/01 08:21:46;;;;;;;18.97;8.43;;;29.40;66.20;;;;;;5030126;28;20102;-60
2022/07/01 08:24:11;;;;;;;13.43;6.67;;;29.50;66.30;;;;;;5031424;28;20075;-59
2022/07/01 08:26:37;;;;;;;16.50;6.57;;;29.50;66.00;;;;;;5031502;28;20029;-58
2022/07/01 08:29:03;;;;;;;21.70;7.70;;;29.60;66.40;;;;;;5031234;28;20029;-59
2022/07/01 08:31:31;;;;;;;13.70;7.72;;;29.60;65.60;;;;;;5031300;28;20057;-59
2022/07/01 08:33:57;;;;;;;16.23;5.88;;;29.60;65.20;;;;;;5031226;28;20021;-58
2022/07/01 08:36:23;;;;;;;19.02;8.15;;;29.70;65.10;;;;;;5031316;28;20049;-59
2022/07/01 08:38:49;;;;;;;13.23;7.47;;;29.80;65.00;;;;;;5031137;28;20021;-55
2022/07/01 08:41:15;;;;;;;14.68;7.95;;;29.90;65.40;;;;;;5031441;28;20470;-54
2022/07/01 08:43:41;;;;;;;11.75;7.25;;;30.00;65.30;;;;;;5031232;28;20101;-58
2022/07/01 08:46:07;;;;;;;8.83;5.00;;;30.10;65.20;;;;;;5031542;28;20128;-57
2022/07/01 08:48:33;;;;;;;12.20;6.50;;;30.10;63.30;;;;;;5013218;28;20561;-58
2022/07/01 08:51:03;;;;;;;15.00;7.40;;;30.10;62.20;;;;;;5013141;28;20038;-59
2022/07/01 08:53:31;;;;;;;16.58;8.23;;;30.00;62.10;;;;;;5031596;28;20033;-59
2022/07/01 08:58:41;;;;;;;16.35;7.10;;;29.80;63.80;;;;;;5031018;28;20552;-59
2022/07/01 09:01:13;;;;;;;17.13;8.37;;;29.90;63.50;;;;;;5031018;28;20029;-59
2022/07/01 09:03:39;;;;;;;11.93;5.65;;;29.90;64.70;;;;;;5034572;28;20033;-57
2022/07/01 09:06:14;;;;;;;14.23;6.50;;;29.90;61.90;;;;;;5034793;28;20034;-58
2022/07/01 09:08:41;;;;;;;20.05;6.85;;;30.00;61.50;;;;;;5034469;28;20034;-59
2022/07/01 09:11:22;;;;;;;9.85;6.50;;;29.90;62.00;;;;;;5034434;28;20030;-58
2022/07/01 09:14:08;;;;;;;17.58;6.32;;;30.00;60.20;;;;;;5034436;28;20025;-59
2022/07/01 09:16:46;;;;;;;16.75;7.05;;;30.00;62.20;;;;;;5034427;28;20433;-58
2022/07/01 09:19:14;;;;;;;13.02;6.30;;;30.10;62.20;;;;;;5034201;28;21305;-59
2022/07/01 09:21:39;;;;;;;13.85;7.57;;;30.20;61.70;;;;;;5034294;28;20029;-59
2022/07/01 09:24:23;;;;;;;12.03;8.37;;;30.30;61.90;;;;;;5016516;28;20505;-57
2022/07/01 09:27:00;;;;;;;14.25;8.60;;;30.30;62.80;;;;;;5034236;28;20111;-58
2022/07/01 09:29:31;;;;;;;12.68;7.82;;;30.40;62.60;;;;;;5033996;28;20037;-59
2022/07/01 09:31:58;;;;;;;19.15;10.20;;;30.40;63.30;;;;;;5033983;28;20390;-59
2022/07/01 09:34:24;;;;;;;14.30;8.15;;;30.50;62.30;;;;;;5034042;28;20043;-59
2022/07/01 09:36:57;;;;;;;17.25;7.78;;;30.50;62.20;;;;;;5034071;28;20548;-57
2022/07/01 09:39:23;;;;;;;12.60;7.15;;;30.50;62.50;;;;;;5033918;28;20088;-60
2022/07/01 09:41:53;;;;;;;14.50;5.80;;;30.70;60.70;;;;;;5034099;28;20596;-57
2022/07/01 09:44:19;;;;;;;13.23;7.32;;;30.60;60.20;;;;;;5033916;28;20037;-58
2022/07/01 09:46:55;;;;;;;11.93;6.67;;;30.60;59.20;;;;;;5033861;28;20026;-57
2022/07/01 09:49:21;;;;;;;19.17;6.90;;;30.40;60.40;;;;;;5033530;28;20264;-57
2022/07/01 09:51:49;;;;;;;12.75;3.97;;;30.30;59.90;;;;;;5015948;28;20083;-54
2022/07/01 09:54:15;;;;;;;11.20;5.75;;;30.20;56.90;;;;;;5033747;28;20489;-58
2022/07/01 09:56:40;;;;;;;16.38;6.50;;;30.10;56.80;;;;;;5015993;28;20057;-58
2022/07/01 09:59:06;;;;;;;7.97;4.53;;;30.00;56.00;;;;;;5033739;28;20489;-59
2022/07/01 10:01:32;;;;;;;8.93;4.03;;;29.90;55.80;;;;;;5033491;28;20033;-57
2022/07/01 10:04:00;;;;;;;9.85;4.47;;;29.90;57.00;;;;;;5015719;28;20037;-56
2022/07/01 10:06:41;;;;;;;8.98;5.22;;;30.20;56.70;;;;;;5033747;28;20013;-57
2022/07/01 10:09:23;;;;;;;13.93;4.75;;;30.40;56.20;;;;;;5032534;28;20079;-56
2022/07/01 10:12:20;;;;;;;11.43;4.57;;;30.70;56.60;;;;;;4995387;28;20153;-59
2022/07/01 10:14:46;;;;;;;7.18;3.95;;;31.00;55.60;;;;;;5024922;28;20040;-59
2022/07/01 10:17:27;;;;;;;13.32;5.43;;;31.30;55.80;;;;;;5032598;28;20021;-59
2022/07/01 10:20:05;;;;;;;6.45;4.13;;;31.50;54.30;;;;;;5032922;28;20032;-59
2022/07/01 10:22:31;;;;;;;10.52;4.45;;;31.50;54.60;;;;;;5032765;28;20024;-59
2022/07/01 10:25:39;;;;;;;12.40;4.23;;;31.60;54.10;;;;;;5031299;28;20021;-59
2022/07/01 10:28:26;;;;;;;11.25;5.25;;;31.70;53.50;;;;;;5027792;28;20053;-60
2022/07/01 10:30:54;;;;;;;7.15;4.53;;;31.70;52.40;;;;;;5032852;28;20072;-58
2022/07/01 10:33:35;;;;;;;13.80;4.35;;;31.60;52.70;;;;;;5032772;28;20028;-58
2022/07/01 10:36:27;;;;;;;10.73;4.38;;;31.50;51.80;;;;;;5032946;28;20017;-59
2022/07/01 10:39:08;;;;;;;12.45;4.68;;;31.30;52.30;;;;;;5028377;28;20096;-59
2022/07/01 10:41:34;;;;;;;7.78;4.20;;;31.30;53.40;;;;;;5021481;28;20029;-58
2022/07/01 10:44:04;;;;;;;;;;;31.30;52.40;;;;;;5032943;28;20091;-58
2022/07/01 10:46:57;;;;;;;10.25;4.97;;;31.30;52.30;;;;;;5031795;28;19991;-58
2022/07/01 10:49:51;;;;;;;10.05;3.45;;;31.40;52.50;;;;;;5031911;28;20048;-56
2022/07/01 10:52:19;;;;;;;8.13;3.90;;;31.50;51.60;;;;;;5032288;28;20095;-58
2022/07/01 10:54:48;;;;;;;10.60;3.40;;;31.70;51.80;;;;;;5014630;28;20022;-59
2022/07/01 10:57:16;;;;;;;7.50;2.90;;;32.00;51.00;;;;;;5032320;28;20022;-57
2022/07/01 10:59:43;;;;;;;4.28;3.03;;;32.10;48.90;;;;;;5032333;28;20486;-58
2022/07/01 11:02:16;;;;;;;7.32;2.60;;;32.20;48.40;;;;;;5031859;28;20431;-58
2022/07/01 11:04:42;;;;;;;8.50;2.83;;;32.30;46.90;;;;;;5031510;28;20052;-60
2022/07/01 11:07:09;;;;;;;10.60;3.03;;;32.30;45.90;;;;;;5032333;28;20478;-57
2022/07/01 11:09:35;;;;;;;;;;;32.30;45.70;;;;;;5031811;28;20067;-59
2022/07/01 11:12:01;;;;;;;3.65;1.88;;;32.40;46.70;;;;;;5013702;28;19917;-58
2022/07/01 11:14:27;;;;;;;;;;;32.60;44.50;;;;;;5029345;28;20548;-55
2022/07/01 11:16:54;;;;;;;11.70;2.58;;;32.70;44.10;;;;;;5031915;28;19913;-58
2022/07/01 11:19:20;;;;;;;6.07;2.10;;;32.70;44.10;;;;;;5029242;28;20114;-58
2022/07/01 11:21:53;;;;;;;7.10;1.92;;;32.80;43.40;;;;;;5031730;28;20109;-56
2022/07/01 11:24:20;;;;;;;10.93;2.70;;;32.80;40.80;;;;;;5013342;28;20021;-59
2022/07/01 11:26:46;;;;;;;6.85;2.05;;;32.90;41.10;;;;;;5010166;28;20034;-57
2022/07/01 11:29:14;;;;;;;4.82;2.22;;;32.80;40.60;;;;;;5012536;28;20034;-59
2022/07/01 11:31:40;;;;;;;4.45;1.40;;;33.00;40.90;;;;;;5012061;28;20395;-59
2022/07/01 11:34:06;;;;;;;3.85;2.33;;;33.10;40.60;;;;;;5026869;28;20501;-58
2022/07/01 11:39:25;;;;;;;3.55;1.38;;;33.30;39.30;;;;;;5031804;28;19932;-58
2022/07/01 11:41:58;;;;;;;6.90;1.80;;;33.40;38.70;;;;;;5031203;28;20029;-57
2022/07/01 11:44:37;;;;;;;4.72;1.65;;;33.60;37.30;;;;;;5031482;28;20306;-59
2022/07/01 11:47:08;;;;;;;5.43;1.75;;;33.70;38.00;;;;;;5031453;28;20034;-58
2022/07/01 11:49:34;;;;;;;7.97;1.65;;;33.90;37.20;;;;;;5032132;28;20084;-56
2022/07/01 11:52:04;;;;;;;6.40;1.67;;;33.90;37.90;;;;;;5031599;28;20444;-56
2022/07/01 11:54:35;;;;;;;8.77;2.30;;;34.00;37.20;;;;;;5031582;28;20036;-56
2022/07/01 11:57:16;;;;;;;5.25;1.73;;;33.90;37.90;;;;;;5031371;28;20505;-58
2022/07/01 11:59:42;;;;;;;5.13;1.60;;;34.00;37.10;;;;;;5013517;28;20108;-56
2022/07/01 12:02:10;;;;;;;4.53;1.50;;;34.00;36.00;;;;;;5031462;28;20021;-55
2022/07/01 12:04:37;;;;;;;7.35;1.60;;;33.80;35.40;;;;;;5031536;28;20064;-58
2022/07/01 12:07:04;;;;;;;4.47;1.27;;;33.90;34.10;;;;;;5031288;28;20032;-57
2022/07/01 12:09:30;;;;;;;2.90;1.17;;;34.00;34.60;;;;;;5031149;28;20484;-59
2022/07/01 12:11:56;;;;;;;2.85;1.30;;;34.00;34.30;;;;;;5031218;28;20029;-58
2022/07/01 12:14:35;;;;;;;3.72;1.70;;;34.10;33.00;;;;;;5013820;28;20026;-58
2022/07/01 12:17:05;;;;;;;3.17;1.40;;;34.10;32.90;;;;;;5031745;28;20079;-55
2022/07/01 12:19:41;;;;;;;2.85;1.52;;;34.10;33.40;;;;;;5031056;28;20029;-57
2022/07/01 12:22:11;;;;;;;10.13;1.67;;;34.10;33.80;;;;;;5030847;28;20033;-57
2022/07/01 12:24:37;;;;;;;3.28;1.25;;;34.30;34.00;;;;;;5031484;28;20075;-56
2022/07/01 12:27:06;;;;;;;2.78;1.20;;;34.40;32.40;;;;;;5031019;28;20025;-57
2022/07/01 12:29:50;;;;;;;4.45;1.38;;;34.50;33.10;;;;;;5031325;28;20026;-58
2022/07/01 12:32:25;;;;;;;3.53;1.30;;;34.70;33.40;;;;;;5015299;28;20203;-58
2022/07/01 12:34:57;;;;;;;3.17;1.42;;;34.80;33.20;;;;;;5031080;28;20113;-59
2022/07/01 12:37:25;;;;;;;4.90;1.88;;;35.00;32.50;;;;;;5034203;28;20035;-58
2022/07/01 12:39:55;;;;;;;5.70;1.67;;;35.20;33.30;;;;;;5034917;28;20021;-56
2022/07/01 12:42:37;;;;;;;6.07;2.22;;;35.30;33.20;;;;;;5034913;28;20501;-56
2022/07/01 12:45:05;;;;;;;3.45;1.77;;;35.40;33.30;;;;;;5035010;28;20091;-57
2022/07/01 12:47:34;;;;;;;5.55;1.20;;;35.40;32.00;;;;;;5034522;28;20052;-56
2022/07/01 12:50:32;;;;;;;4.25;1.45;;;35.40;32.10;;;;;;5016698;28;20069;-55
2022/07/01 12:53:03;;;;;;;4.55;1.77;;;35.40;32.40;;;;;;5020616;28;20540;-58
2022/07/01 12:55:37;;;;;;;2.58;1.25;;;35.40;32.90;;;;;;5034513;28;20115;-54
2022/07/01 12:58:05;;;;;;;3.08;1.42;;;35.40;33.00;;;;;;5034390;28;20039;-57
2022/07/01 13:00:32;;;;;;;6.30;1.20;;;35.40;32.00;;;;;;5034141;28;20068;-58